Time;durP1;ratioP1;P1;durP2;ratioP2;P2;SDS_P1;SDS_P2;PMS_P1;PMS_P2;Temp;Humidity;BMP_temperature;BMP_pressure;BME280_temperature;BME280_humidity;BME280_pressure;Samples;Min_cycle;Max_cycle;Signal;HPM_P1;HPM_P2
2022/02/17 00:02:20;;;;;;;15.27;2.45;;;12.40;86.60;;;;;;9185255;19;20017;-65
2022/02/17 00:05:26;;;;;;;9.02;2.08;;;12.40;86.50;;;;;;9187888;19;20018;-65
2022/02/17 00:08:31;;;;;;;12.07;2.50;;;12.40;86.40;;;;;;9183087;19;20029;-65
2022/02/17 00:11:39;;;;;;;14.32;2.92;;;12.40;86.20;;;;;;9184234;19;20023;-66
2022/02/17 00:14:47;;;;;;;10.60;2.22;;;12.30;86.20;;;;;;9183742;19;20018;-67
2022/02/17 00:17:52;;;;;;;13.68;2.30;;;12.30;86.00;;;;;;9183202;19;20640;-67
2022/02/17 00:21:00;;;;;;;15.25;3.60;;;12.30;86.00;;;;;;9181673;19;20411;-65
2022/02/17 00:24:05;;;;;;;10.75;2.58;;;12.30;86.00;;;;;;9181653;19;20022;-64
2022/02/17 00:27:10;;;;;;;7.93;1.50;;;12.20;85.80;;;;;;9183138;19;20019;-65
2022/02/17 00:30:18;;;;;;;6.63;1.50;;;12.20;85.50;;;;;;9183627;19;20026;-67
2022/02/17 00:33:23;;;;;;;9.85;1.85;;;12.10;85.10;;;;;;9186284;19;20018;-65
2022/02/17 00:36:28;;;;;;;12.40;2.78;;;12.10;85.00;;;;;;9182907;19;20014;-64
2022/02/17 00:39:33;;;;;;;13.77;2.00;;;12.10;85.00;;;;;;9182137;19;20020;-64
2022/02/17 00:42:38;;;;;;;7.03;1.73;;;12.00;84.90;;;;;;9183527;19;20014;-65
2022/02/17 00:45:46;;;;;;;6.53;1.23;;;12.00;84.80;;;;;;9183715;19;20026;-65
2022/02/17 00:48:51;;;;;;;8.15;2.20;;;11.90;84.60;;;;;;9184835;19;20022;-66
2022/02/17 00:51:56;;;;;;;8.43;1.33;;;11.90;84.70;;;;;;9181506;19;20022;-66
2022/02/17 00:55:01;;;;;;;4.30;1.30;;;11.80;84.50;;;;;;9180384;19;20014;-64
2022/02/17 00:58:07;;;;;;;5.70;1.30;;;11.80;84.50;;;;;;9181109;19;20018;-64
2022/02/17 01:01:15;;;;;;;5.97;1.60;;;11.80;84.60;;;;;;9181659;19;20387;-65
2022/02/17 01:04:20;;;;;;;7.95;1.60;;;11.70;84.70;;;;;;9184103;19;20015;-64
2022/02/17 01:07:25;;;;;;;7.28;1.85;;;11.70;84.40;;;;;;9179518;19;20018;-66
2022/02/17 01:10:31;;;;;;;12.93;2.22;;;11.60;84.30;;;;;;9179102;19;20495;-64
2022/02/17 01:13:36;;;;;;;10.27;2.75;;;11.60;84.40;;;;;;9180880;19;20082;-64
2022/02/17 01:16:44;;;;;;;14.02;2.83;;;11.50;84.40;;;;;;9181929;19;20495;-64
2022/02/17 01:19:53;;;;;;;11.93;2.30;;;11.50;84.40;;;;;;9182726;19;20484;-63
2022/02/17 01:22:59;;;;;;;18.90;3.08;;;11.50;84.50;;;;;;9178459;19;20025;-65
2022/02/17 01:26:04;;;;;;;15.95;3.13;;;11.50;84.60;;;;;;9179396;19;20014;-64
2022/02/17 01:29:18;;;;;;;19.48;3.42;;;11.50;84.60;;;;;;9180577;19;20022;-66
2022/02/17 01:32:26;;;;;;;18.00;2.88;;;11.50;84.60;;;;;;9179884;19;20025;-64
2022/02/17 01:35:31;;;;;;;10.98;2.70;;;11.50;84.60;;;;;;9181336;19;20073;-63
2022/02/17 01:38:44;;;;;;;16.30;2.80;;;11.50;84.60;;;;;;9177818;19;20586;-66
2022/02/17 01:41:49;;;;;;;16.40;2.70;;;11.50;84.50;;;;;;9179292;19;20026;-65
2022/02/17 01:45:04;;;;;;;14.90;3.22;;;11.60;84.50;;;;;;9180242;19;20018;-64
2022/02/17 01:48:12;;;;;;;13.13;2.75;;;11.60;84.40;;;;;;9181675;19;20022;-65
2022/02/17 01:51:21;;;;;;;15.27;2.85;;;11.60;84.30;;;;;;9181842;19;20011;-64
2022/02/17 01:54:31;;;;;;;12.30;2.50;;;11.60;84.30;;;;;;9178161;19;20014;-64
2022/02/17 01:57:37;;;;;;;13.50;2.45;;;11.60;84.20;;;;;;9179892;19;20080;-64
2022/02/17 02:00:43;;;;;;;11.65;2.47;;;11.70;84.20;;;;;;9179006;19;20018;-66
2022/02/17 02:03:51;;;;;;;17.00;2.90;;;11.70;84.20;;;;;;9178318;19;20089;-65
2022/02/17 02:06:56;;;;;;;12.02;2.92;;;11.70;84.10;;;;;;9180712;19;20011;-65
2022/02/17 02:10:01;;;;;;;16.42;2.58;;;11.70;84.10;;;;;;9178002;19;20349;-64
2022/02/17 02:13:11;;;;;;;13.15;2.60;;;11.70;83.90;;;;;;9178990;19;20413;-64
2022/02/17 02:16:18;;;;;;;13.18;2.67;;;11.70;83.60;;;;;;9178764;19;20177;-64
2022/02/17 02:19:26;;;;;;;14.43;2.60;;;11.70;83.40;;;;;;9175554;19;20006;-64
2022/02/17 02:22:38;;;;;;;16.63;2.92;;;11.70;83.10;;;;;;9180460;19;20018;-64
2022/02/17 02:25:47;;;;;;;11.85;2.33;;;11.70;82.90;;;;;;9176156;19;20034;-68
2022/02/17 02:28:52;;;;;;;21.80;2.90;;;11.70;82.80;;;;;;9179136;19;20010;-66
2022/02/17 02:31:58;;;;;;;23.38;2.97;;;11.70;82.80;;;;;;9178656;19;20010;-67
2022/02/17 02:35:04;;;;;;;19.67;3.53;;;11.60;82.70;;;;;;9178272;19;20023;-64
2022/02/17 02:38:12;;;;;;;24.30;2.83;;;11.60;82.50;;;;;;9177660;19;20072;-64
2022/02/17 02:41:17;;;;;;;16.35;3.30;;;11.60;82.30;;;;;;9177035;19;20014;-66
2022/02/17 02:44:28;;;;;;;22.77;3.35;;;11.50;82.30;;;;;;9174088;19;20021;-63
2022/02/17 02:47:38;;;;;;;24.55;4.82;;;11.50;82.10;;;;;;9178471;19;20010;-65
2022/02/17 02:50:43;;;;;;;18.10;3.30;;;11.50;82.10;;;;;;9177845;19;20450;-65
2022/02/17 02:53:51;;;;;;;19.02;3.40;;;11.40;82.00;;;;;;9175607;19;20488;-63
2022/02/17 02:56:56;;;;;;;18.00;3.50;;;11.40;81.90;;;;;;9176758;19;20015;-64
2022/02/17 03:00:04;;;;;;;13.18;2.80;;;11.40;82.00;;;;;;9177384;19;20391;-64
2022/02/17 03:03:09;;;;;;;15.48;3.00;;;11.40;82.00;;;;;;9176831;19;20015;-65
2022/02/17 03:06:14;;;;;;;23.13;3.65;;;11.30;81.90;;;;;;9177038;19;20015;-64
2022/02/17 03:09:22;;;;;;;17.00;2.83;;;11.30;81.90;;;;;;9177857;19;20579;-64
2022/02/17 03:12:27;;;;;;;16.83;3.60;;;11.30;81.70;;;;;;9177284;19;20025;-65
2022/02/17 03:15:32;;;;;;;16.48;3.20;;;11.30;81.70;;;;;;9179092;19;20018;-64
2022/02/17 03:18:37;;;;;;;21.45;3.20;;;11.20;81.50;;;;;;9173945;19;20018;-65
2022/02/17 03:21:50;;;;;;;19.08;3.05;;;11.20;81.40;;;;;;9175357;19;20022;-65
2022/02/17 03:24:58;;;;;;;24.63;3.60;;;11.20;81.40;;;;;;9174383;19;20111;-66
2022/02/17 03:28:03;;;;;;;19.98;3.40;;;11.20;81.20;;;;;;9175776;19;20101;-64
2022/02/17 03:31:24;;;;;;;17.90;3.38;;;11.20;81.20;;;;;;9177065;19;20115;-64
2022/02/17 03:34:34;;;;;;;17.02;3.00;;;11.10;81.10;;;;;;9176865;19;20026;-64
2022/02/17 03:37:40;;;;;;;26.20;3.72;;;11.10;81.00;;;;;;9173596;19;20100;-63
2022/02/17 03:40:49;;;;;;;21.80;3.70;;;11.10;81.00;;;;;;9174404;19;20048;-64
2022/02/17 03:43:57;;;;;;;18.95;3.63;;;11.10;80.90;;;;;;9174943;19;20059;-64
2022/02/17 03:47:08;;;;;;;17.50;3.53;;;11.10;81.00;;;;;;9176914;19;20014;-63
2022/02/17 03:50:25;;;;;;;15.10;2.63;;;11.10;80.90;;;;;;9176812;19;20010;-64
2022/02/17 03:53:41;;;;;;;17.48;3.55;;;11.10;80.90;;;;;;9175894;19;20026;-63
2022/02/17 03:56:49;;;;;;;11.60;2.60;;;11.00;80.70;;;;;;9174049;19;20086;-63
2022/02/17 04:00:07;;;;;;;21.30;3.53;;;11.00;80.60;;;;;;9182882;19;20045;-63
2022/02/17 04:03:20;;;;;;;14.05;2.85;;;11.00;80.60;;;;;;9183435;19;20018;-64
2022/02/17 04:06:27;;;;;;;16.92;2.92;;;11.00;80.50;;;;;;9184408;19;20022;-64
2022/02/17 04:09:32;;;;;;;19.52;2.40;;;11.00;80.40;;;;;;9184961;19;20060;-63
2022/02/17 04:12:40;;;;;;;15.98;2.90;;;11.00;80.30;;;;;;9182036;19;20026;-64
2022/02/17 04:15:45;;;;;;;18.90;2.67;;;11.00;80.10;;;;;;9181835;19;20011;-63
2022/02/17 04:19:02;;;;;;;18.13;3.38;;;11.00;80.10;;;;;;9178554;19;20018;-66
2022/02/17 04:22:27;;;;;;;13.57;3.88;;;11.00;79.90;;;;;;9181707;19;20757;-64
2022/02/17 04:25:50;;;;;;;18.60;2.60;;;11.00;79.90;;;;;;9185505;19;20021;-65
2022/02/17 04:29:21;;;;;;;13.48;2.85;;;10.90;80.00;;;;;;9183524;19;20014;-63
2022/02/17 04:32:30;;;;;;;17.92;2.88;;;10.90;79.70;;;;;;9180722;19;20029;-64
2022/02/17 04:35:36;;;;;;;18.10;2.88;;;10.90;79.70;;;;;;9180904;19;20025;-62
2022/02/17 04:38:41;;;;;;;18.70;2.58;;;10.90;79.60;;;;;;9182861;19;20022;-64
2022/02/17 04:45:10;;;;;;;24.10;3.53;;;10.80;79.50;;;;;;9180722;19;20025;-65
2022/02/17 04:48:16;;;;;;;17.20;2.92;;;10.90;79.40;;;;;;9183026;19;20018;-65
2022/02/17 04:51:21;;;;;;;25.38;4.00;;;10.90;79.40;;;;;;9181444;19;20024;-63
2022/02/17 04:54:27;;;;;;;20.70;3.40;;;10.90;79.40;;;;;;9181261;19;20056;-66
2022/02/17 04:57:32;;;;;;;14.40;3.45;;;10.80;79.20;;;;;;9184373;19;20022;-64
2022/02/17 05:00:40;;;;;;;15.90;2.60;;;10.80;79.20;;;;;;9182992;19;20007;-63
2022/02/17 05:04:09;;;;;;;15.82;3.88;;;10.80;79.10;;;;;;9181377;19;20086;-63
2022/02/17 05:07:19;;;;;;;16.20;3.15;;;10.80;79.10;;;;;;9178914;19;20026;-64
2022/02/17 05:10:24;;;;;;;14.30;3.40;;;10.80;79.00;;;;;;9179779;19;20019;-64
2022/02/17 05:13:32;;;;;;;18.75;3.35;;;10.70;78.90;;;;;;9179963;19;20018;-63
2022/02/17 05:16:40;;;;;;;23.73;3.47;;;10.70;78.80;;;;;;9181519;19;20033;-62
2022/02/17 05:19:45;;;;;;;23.73;4.07;;;10.70;78.80;;;;;;9178941;19;20545;-64
2022/02/17 05:22:52;;;;;;;22.92;5.03;;;10.60;78.80;;;;;;9181129;19;20026;-62
2022/02/17 05:26:16;;;;;;;16.65;3.10;;;10.60;78.70;;;;;;9178918;19;20025;-63
2022/02/17 05:29:30;;;;;;;20.73;3.25;;;10.60;78.80;;;;;;9180352;19;20025;-63
2022/02/17 05:32:57;;;;;;;27.83;4.68;;;10.60;78.80;;;;;;9182445;19;20014;-64
2022/02/17 05:36:11;;;;;;;13.68;2.67;;;10.50;78.70;;;;;;9182535;19;20022;-63
2022/02/17 05:39:48;;;;;;;19.85;3.80;;;10.50;78.70;;;;;;9180228;19;20021;-63
2022/02/17 05:42:55;;;;;;;25.85;3.65;;;10.50;78.70;;;;;;9182744;19;20006;-63
2022/02/17 05:46:00;;;;;;;18.25;3.58;;;10.40;78.60;;;;;;9177763;19;20037;-63
2022/02/17 05:49:13;;;;;;;20.90;3.65;;;10.40;78.60;;;;;;9180690;19;20014;-63
2022/02/17 05:52:18;;;;;;;24.63;3.88;;;10.40;78.60;;;;;;9179304;19;20037;-63
2022/02/17 05:55:25;;;;;;;16.80;2.88;;;10.30;78.60;;;;;;9181144;19;20015;-64
2022/02/17 05:58:29;;;;;;;18.85;3.40;;;10.30;78.60;;;;;;9181716;19;20022;-65
2022/02/17 06:01:34;;;;;;;23.80;4.35;;;10.30;78.60;;;;;;9176343;19;20022;-63
2022/02/17 06:04:43;;;;;;;32.42;4.07;;;10.30;78.60;;;;;;9177932;19;20021;-63
2022/02/17 06:07:48;;;;;;;17.17;3.10;;;10.30;78.60;;;;;;9181284;19;20018;-63
2022/02/17 06:10:58;;;;;;;16.63;3.08;;;10.30;78.60;;;;;;9179629;19;20019;-63
2022/02/17 06:14:03;;;;;;;24.13;3.85;;;10.30;78.50;;;;;;9181626;19;20030;-65
2022/02/17 06:17:08;;;;;;;19.67;3.05;;;10.30;78.40;;;;;;9173958;19;20022;-63
2022/02/17 06:20:16;;;;;;;16.13;3.20;;;10.20;78.30;;;;;;9176920;19;20022;-64
2022/02/17 06:23:23;;;;;;;18.73;3.08;;;10.20;78.30;;;;;;9178963;19;20022;-63
2022/02/17 06:26:27;;;;;;;25.85;4.13;;;10.20;78.40;;;;;;9180983;19;20019;-63
2022/02/17 06:29:32;;;;;;;20.63;3.25;;;10.20;78.30;;;;;;9179002;19;20040;-64
2022/02/17 06:32:37;;;;;;;17.38;3.05;;;10.20;78.20;;;;;;9177003;19;20033;-65
2022/02/17 06:35:45;;;;;;;12.65;3.00;;;10.20;78.20;;;;;;9178543;19;20021;-63
2022/02/17 06:38:50;;;;;;;20.33;3.08;;;10.10;78.00;;;;;;9178046;19;20082;-63
2022/02/17 06:41:56;;;;;;;16.33;2.53;;;10.10;78.10;;;;;;9179339;19;20416;-64
2022/02/17 06:45:01;;;;;;;17.98;2.88;;;10.10;78.00;;;;;;9178695;19;20015;-65
2022/02/17 06:48:08;;;;;;;13.88;2.17;;;10.00;78.00;;;;;;9177747;19;20029;-64
2022/02/17 06:51:16;;;;;;;11.60;2.38;;;10.00;77.90;;;;;;9176841;19;20345;-64
2022/02/17 06:54:21;;;;;;;18.45;4.00;;;10.00;77.90;;;;;;9176049;19;20018;-63
2022/02/17 06:57:26;;;;;;;18.15;3.72;;;10.00;77.90;;;;;;9180147;19;20610;-65
2022/02/17 07:00:34;;;;;;;23.42;3.33;;;9.90;77.90;;;;;;9175752;19;20022;-63
2022/02/17 07:03:39;;;;;;;13.93;2.70;;;9.90;77.90;;;;;;9175247;19;20074;-63
2022/02/17 07:06:47;;;;;;;19.67;2.65;;;9.80;77.80;;;;;;9175597;19;20033;-65
2022/02/17 07:09:52;;;;;;;12.40;2.42;;;9.80;77.80;;;;;;9175160;19;20783;-63
2022/02/17 07:12:57;;;;;;;12.57;2.78;;;9.80;77.80;;;;;;9176538;19;20019;-63
2022/02/17 07:16:02;;;;;;;22.13;2.72;;;9.80;77.80;;;;;;9164962;19;20019;-62
2022/02/17 07:19:07;;;;;;;17.83;3.05;;;9.70;77.80;;;;;;9165756;19;20019;-65
2022/02/17 07:22:15;;;;;;;17.52;2.55;;;9.70;77.80;;;;;;9168273;19;20111;-63
2022/02/17 07:25:19;;;;;;;17.92;2.90;;;9.70;77.70;;;;;;9166726;19;20026;-63
2022/02/17 07:28:26;;;;;;;19.67;2.45;;;9.70;77.90;;;;;;9170199;19;20349;-63
2022/02/17 07:31:32;;;;;;;16.88;2.20;;;9.70;77.70;;;;;;9169021;19;20893;-62
2022/02/17 07:34:37;;;;;;;12.82;2.00;;;9.70;77.70;;;;;;9174295;19;20019;-64
2022/02/17 07:37:44;;;;;;;12.77;2.60;;;9.70;77.70;;;;;;9181735;19;20014;-64
2022/02/17 07:40:50;;;;;;;20.83;2.83;;;9.70;77.60;;;;;;9179535;19;20018;-63
2022/02/17 07:43:55;;;;;;;12.73;2.63;;;9.70;77.70;;;;;;9178342;19;20018;-63
2022/02/17 07:47:00;;;;;;;9.82;1.92;;;9.70;77.60;;;;;;9180315;19;20014;-64
2022/02/17 07:50:05;;;;;;;19.23;2.65;;;9.60;77.60;;;;;;9170864;19;20015;-64
2022/02/17 07:53:13;;;;;;;9.75;2.15;;;9.60;77.40;;;;;;9183816;19;20015;-62
2022/02/17 07:56:18;;;;;;;11.63;2.60;;;9.60;77.30;;;;;;9183382;19;20025;-63
2022/02/17 07:59:26;;;;;;;17.23;2.63;;;9.60;77.30;;;;;;9186417;19;20022;-62
2022/02/17 08:02:33;;;;;;;14.55;2.40;;;9.60;77.30;;;;;;9180477;19;20034;-63
2022/02/17 08:05:38;;;;;;;17.23;1.95;;;9.60;77.30;;;;;;9179993;19;20027;-62
2022/02/17 08:08:48;;;;;;;9.18;2.35;;;9.60;77.30;;;;;;9182442;19;20051;-61
2022/02/17 08:11:56;;;;;;;14.18;2.33;;;9.60;77.80;;;;;;9183954;19;20495;-62
2022/02/17 08:15:03;;;;;;;27.60;3.22;;;9.60;77.30;;;;;;9186012;19;20022;-63
2022/02/17 08:18:08;;;;;;;19.70;3.58;;;9.60;77.20;;;;;;9175514;19;20040;-63
2022/02/17 08:21:13;;;;;;;15.52;2.50;;;9.60;77.20;;;;;;9181620;19;20023;-61
2022/02/17 08:24:21;;;;;;;12.25;2.53;;;9.60;77.10;;;;;;9185416;19;20023;-67
2022/02/17 08:27:26;;;;;;;20.75;2.75;;;9.70;77.00;;;;;;9181052;19;20010;-67
2022/02/17 08:30:35;;;;;;;15.43;2.70;;;9.70;77.00;;;;;;9187129;19;20373;-67
2022/02/17 08:33:41;;;;;;;18.08;2.50;;;9.70;77.00;;;;;;9181619;19;20913;-67
2022/02/17 08:36:47;;;;;;;15.88;2.60;;;9.70;76.90;;;;;;9185112;19;20023;-67
2022/02/17 08:39:55;;;;;;;14.07;2.55;;;9.70;76.90;;;;;;9183221;19;20019;-66
2022/02/17 08:43:10;;;;;;;12.02;2.10;;;9.80;76.80;;;;;;9182957;19;20014;-67
2022/02/17 08:46:16;;;;;;;19.03;2.13;;;9.80;76.70;;;;;;9183552;19;20014;-67
2022/02/17 08:49:21;;;;;;;16.10;2.47;;;9.80;76.70;;;;;;9178196;19;20562;-67
2022/02/17 08:52:26;;;;;;;11.52;3.05;;;9.80;76.60;;;;;;9183138;19;20010;-67
2022/02/17 08:55:33;;;;;;;9.70;2.42;;;9.80;76.60;;;;;;9184415;19;20033;-67
2022/02/17 08:58:38;;;;;;;16.90;2.08;;;9.80;76.50;;;;;;9183563;19;20014;-67
2022/02/17 09:01:43;;;;;;;16.33;2.72;;;9.90;76.60;;;;;;9183289;19;20007;-67
2022/02/17 09:04:48;;;;;;;16.52;2.40;;;9.90;76.50;;;;;;9178826;19;20021;-66
2022/02/17 09:07:53;;;;;;;10.35;2.08;;;9.90;76.40;;;;;;9179365;19;20038;-63
2022/02/17 09:11:01;;;;;;;16.67;2.90;;;9.90;76.40;;;;;;9178280;19;20019;-64
2022/02/17 09:14:08;;;;;;;13.15;2.67;;;10.00;76.40;;;;;;9181075;19;20101;-63
2022/02/17 09:17:14;;;;;;;17.50;2.45;;;10.00;76.40;;;;;;9174638;19;20018;-63
2022/02/17 09:20:21;;;;;;;10.45;1.90;;;10.10;76.40;;;;;;9179962;19;20025;-64
2022/02/17 09:23:26;;;;;;;11.68;1.88;;;10.10;76.30;;;;;;9177734;19;20019;-64
2022/02/17 09:26:36;;;;;;;21.67;2.47;;;10.10;76.20;;;;;;9179300;19;20007;-63
2022/02/17 09:29:41;;;;;;;16.35;2.13;;;10.10;76.70;;;;;;9179223;19;20022;-64
2022/02/17 09:33:02;;;;;;;15.57;2.45;;;10.10;76.10;;;;;;9180007;19;20022;-64
2022/02/17 09:36:08;;;;;;;15.68;2.42;;;10.20;76.10;;;;;;9175875;19;20080;-63
2022/02/17 09:39:13;;;;;;;14.77;2.25;;;10.20;76.00;;;;;;9176246;19;20696;-63
2022/02/17 09:42:21;;;;;;;16.38;2.80;;;10.20;75.80;;;;;;9178741;19;20026;-65
2022/02/17 09:45:28;;;;;;;10.57;2.30;;;10.20;75.80;;;;;;9178337;19;20018;-62
2022/02/17 09:48:34;;;;;;;16.23;3.83;;;10.30;75.80;;;;;;9182195;19;20014;-63
2022/02/17 09:51:40;;;;;;;9.32;2.17;;;10.30;75.80;;;;;;9177357;19;20014;-64
2022/02/17 09:54:45;;;;;;;13.75;2.35;;;10.30;75.70;;;;;;9178696;19;20476;-63
2022/02/17 09:57:53;;;;;;;13.02;2.20;;;10.40;75.70;;;;;;9178204;19;20025;-65
2022/02/17 10:00:58;;;;;;;15.63;2.70;;;10.40;75.50;;;;;;9181438;19;20011;-65
2022/02/17 10:04:15;;;;;;;9.55;2.00;;;10.40;75.40;;;;;;9178478;19;20022;-65
2022/02/17 10:07:31;;;;;;;12.52;2.38;;;10.50;75.20;;;;;;9175991;19;20037;-64
2022/02/17 10:10:43;;;;;;;16.50;3.25;;;10.60;75.20;;;;;;9172989;19;20014;-63
2022/02/17 10:14:00;;;;;;;16.30;3.10;;;10.60;75.20;;;;;;9175241;19;20474;-64
2022/02/17 10:17:09;;;;;;;15.48;3.08;;;10.70;75.10;;;;;;9177873;19;20014;-65
2022/02/17 10:20:15;;;;;;;19.00;3.28;;;10.80;75.20;;;;;;9180131;19;20018;-63
2022/02/17 10:23:20;;;;;;;13.18;1.70;;;10.80;74.90;;;;;;9176957;19;20468;-63
2022/02/17 10:26:27;;;;;;;10.52;2.05;;;10.90;74.80;;;;;;9169927;19;20018;-63
2022/02/17 10:29:36;;;;;;;20.60;2.53;;;10.90;74.70;;;;;;9175826;19;20029;-64
2022/02/17 10:32:57;;;;;;;12.85;2.67;;;10.90;74.40;;;;;;9178323;19;20010;-63
2022/02/17 10:36:02;;;;;;;13.02;1.85;;;10.90;74.10;;;;;;9178389;19;20010;-64
2022/02/17 10:39:13;;;;;;;14.10;2.60;;;11.00;74.40;;;;;;9177925;19;20019;-63
2022/02/17 10:42:18;;;;;;;18.13;2.30;;;11.00;74.20;;;;;;9173960;19;20026;-64
2022/02/17 10:45:28;;;;;;;13.90;2.00;;;11.00;74.20;;;;;;9177345;19;20018;-63
2022/02/17 10:48:33;;;;;;;16.02;2.42;;;11.00;74.10;;;;;;9177005;19;20356;-64
2022/02/17 10:51:39;;;;;;;12.55;1.73;;;11.00;74.20;;;;;;9178046;19;20058;-65
2022/02/17 10:54:44;;;;;;;14.93;2.10;;;11.00;74.00;;;;;;9177913;19;20017;-64
2022/02/17 10:57:52;;;;;;;9.88;1.80;;;11.00;73.90;;;;;;9176101;19;20661;-63
2022/02/17 11:01:03;;;;;;;20.20;2.47;;;11.00;73.80;;;;;;9174677;19;20047;-62
2022/02/17 11:04:09;;;;;;;13.80;1.95;;;11.10;73.70;;;;;;9176671;19;20053;-62
2022/02/17 11:07:15;;;;;;;15.70;2.20;;;11.00;73.70;;;;;;9175383;19;20029;-63
2022/02/17 11:10:20;;;;;;;17.70;2.70;;;11.10;74.30;;;;;;9174201;19;20022;-64
2022/02/17 11:13:27;;;;;;;11.43;2.70;;;11.10;73.70;;;;;;9174168;19;20017;-63
2022/02/17 11:16:35;;;;;;;17.25;1.92;;;11.10;73.80;;;;;;9175021;19;20022;-63
2022/02/17 11:19:42;;;;;;;13.95;2.42;;;11.20;73.70;;;;;;9177038;19;20018;-62
2022/02/17 11:22:49;;;;;;;13.02;2.20;;;11.30;73.80;;;;;;9177958;19;20586;-64
2022/02/17 11:25:55;;;;;;;19.30;2.20;;;11.40;73.80;;;;;;9170890;19;20103;-63
2022/02/17 11:29:30;;;;;;;11.85;2.97;;;11.50;73.60;;;;;;9169598;19;20023;-63
2022/02/17 11:32:35;;;;;;;14.50;2.75;;;11.60;73.20;;;;;;9169444;19;20014;-64
2022/02/17 11:35:41;;;;;;;8.55;1.73;;;11.70;73.50;;;;;;9170853;19;20022;-63
2022/02/17 11:38:51;;;;;;;14.02;2.15;;;11.80;73.30;;;;;;9173949;19;20018;-63
2022/02/17 11:42:02;;;;;;;10.18;2.70;;;11.80;72.80;;;;;;9173540;19;20419;-64
2022/02/17 11:45:16;;;;;;;12.07;1.95;;;11.90;72.70;;;;;;9168907;19;20026;-62
2022/02/17 11:48:35;;;;;;;10.48;1.50;;;11.90;72.40;;;;;;9170389;19;20010;-64
2022/02/17 11:51:40;;;;;;;16.08;2.90;;;12.00;72.20;;;;;;9168862;19;20468;-64
2022/02/17 11:55:21;;;;;;;13.40;2.03;;;12.00;72.40;;;;;;9173703;19;20010;-65
2022/02/17 11:58:45;;;;;;;10.23;2.00;;;12.00;71.80;;;;;;9172837;19;20055;-66
2022/02/17 12:01:53;;;;;;;10.98;2.22;;;12.00;71.70;;;;;;9174454;19;20479;-64
2022/02/17 12:05:20;;;;;;;14.40;2.35;;;12.00;72.00;;;;;;9175958;19;20014;-64
2022/02/17 12:08:30;;;;;;;13.77;2.78;;;12.00;72.00;;;;;;9174158;19;20479;-67
2022/02/17 12:11:36;;;;;;;9.32;1.58;;;11.90;71.90;;;;;;9172724;19;20081;-64
2022/02/17 12:14:48;;;;;;;12.45;2.50;;;11.90;71.90;;;;;;9172285;19;20486;-65
2022/02/17 12:17:57;;;;;;;14.85;2.78;;;11.90;71.60;;;;;;9175324;19;20014;-63
2022/02/17 12:21:05;;;;;;;12.48;2.13;;;11.90;71.70;;;;;;9183439;19;20018;-64
2022/02/17 12:24:12;;;;;;;10.45;1.98;;;11.90;71.80;;;;;;9179731;19;20015;-64
2022/02/17 12:27:23;;;;;;;11.20;2.30;;;11.90;71.60;;;;;;9178423;19;20018;-64
2022/02/17 12:30:31;;;;;;;8.02;2.10;;;11.90;71.40;;;;;;9181187;19;20026;-64
2022/02/17 12:33:38;;;;;;;14.68;1.88;;;11.90;71.50;;;;;;9182565;19;20025;-66
2022/02/17 12:36:44;;;;;;;15.25;1.70;;;11.90;71.40;;;;;;9182009;19;20041;-66
2022/02/17 12:39:51;;;;;;;12.43;2.10;;;11.80;71.40;;;;;;9179627;19;20021;-65
2022/02/17 12:42:56;;;;;;;6.35;1.70;;;11.90;71.50;;;;;;9179832;19;20480;-64
2022/02/17 12:46:02;;;;;;;12.30;1.98;;;11.90;72.00;;;;;;9175807;19;20018;-68
2022/02/17 12:49:12;;;;;;;19.92;2.55;;;11.90;71.30;;;;;;9173000;19;20018;-65
2022/02/17 12:52:20;;;;;;;11.73;1.65;;;11.90;71.00;;;;;;9178955;19;20357;-64
2022/02/17 12:55:44;;;;;;;14.77;1.58;;;12.00;71.20;;;;;;9176422;19;20825;-65
2022/02/17 12:58:49;;;;;;;11.43;1.83;;;12.00;70.70;;;;;;9173912;19;20030;-65
2022/02/17 13:01:58;;;;;;;10.18;1.65;;;12.00;71.70;;;;;;9174403;19;20492;-65
2022/02/17 13:05:07;;;;;;;13.27;2.55;;;12.00;70.90;;;;;;9177624;19;20022;-64
2022/02/17 13:08:12;;;;;;;8.55;1.63;;;12.00;70.80;;;;;;9174874;19;20050;-66
2022/02/17 13:11:19;;;;;;;7.55;1.48;;;12.00;70.70;;;;;;9170460;19;20006;-64
2022/02/17 13:14:26;;;;;;;11.93;2.17;;;11.90;70.50;;;;;;9174044;19;20055;-63
2022/02/17 13:17:36;;;;;;;9.80;2.13;;;11.90;70.40;;;;;;9174217;19;20595;-64
2022/02/17 13:20:44;;;;;;;9.48;1.90;;;11.80;70.30;;;;;;9174473;19;20804;-63
2022/02/17 13:23:51;;;;;;;7.18;1.95;;;11.70;70.30;;;;;;9174713;19;20392;-65
2022/02/17 13:26:56;;;;;;;13.75;1.80;;;11.60;70.20;;;;;;9174861;19;20018;-66
2022/02/17 13:30:04;;;;;;;13.10;2.63;;;11.60;70.20;;;;;;9173984;19;20038;-65
2022/02/17 13:33:10;;;;;;;7.70;1.35;;;11.50;70.20;;;;;;9174786;19;20022;-64
2022/02/17 13:36:29;;;;;;;12.05;1.88;;;11.50;70.30;;;;;;9174693;19;20018;-64
2022/02/17 13:39:34;;;;;;;8.15;1.52;;;11.40;69.90;;;;;;9174632;19;20022;-66
2022/02/17 13:42:58;;;;;;;9.90;2.03;;;11.30;70.30;;;;;;9175631;19;20480;-65
2022/02/17 13:46:05;;;;;;;12.93;2.38;;;11.30;70.10;;;;;;9171472;19;20043;-63
2022/02/17 13:49:18;;;;;;;9.50;1.67;;;11.20;70.30;;;;;;9174509;19;20019;-64
2022/02/17 13:52:29;;;;;;;10.27;1.73;;;11.20;70.20;;;;;;9173858;19;20022;-66
2022/02/17 13:55:36;;;;;;;10.40;1.98;;;11.20;70.30;;;;;;9174618;19;20056;-64
2022/02/17 13:58:41;;;;;;;8.00;1.83;;;11.20;70.40;;;;;;9175635;19;20018;-64
2022/02/17 14:01:48;;;;;;;8.18;1.50;;;11.20;70.40;;;;;;9175285;19;20015;-64
2022/02/17 14:04:59;;;;;;;13.68;2.17;;;11.10;70.30;;;;;;9172926;19;20026;-64
2022/02/17 14:08:08;;;;;;;13.70;2.33;;;11.10;70.30;;;;;;9172290;19;20015;-64
2022/02/17 14:11:14;;;;;;;17.50;2.28;;;11.10;70.50;;;;;;9173376;19;20029;-64
2022/02/17 14:14:19;;;;;;;13.77;2.42;;;11.10;70.60;;;;;;9175199;19;20022;-64
2022/02/17 14:17:24;;;;;;;13.77;2.55;;;11.10;70.60;;;;;;9174076;19;20082;-64
2022/02/17 14:20:29;;;;;;;10.25;1.88;;;11.00;70.60;;;;;;9171994;19;20014;-63
2022/02/17 14:23:37;;;;;;;7.93;1.98;;;11.00;70.60;;;;;;9173479;19;20049;-65
2022/02/17 14:26:43;;;;;;;9.80;1.65;;;10.90;70.60;;;;;;9171048;19;20018;-64
2022/02/17 14:29:48;;;;;;;7.72;1.55;;;10.90;70.70;;;;;;9171880;19;20015;-65
2022/02/17 14:32:53;;;;;;;6.70;1.45;;;10.80;70.60;;;;;;9171473;19;20018;-64
2022/02/17 14:35:58;;;;;;;21.90;2.50;;;10.80;70.60;;;;;;9171819;19;20014;-65
2022/02/17 14:39:06;;;;;;;12.43;1.80;;;10.70;70.70;;;;;;9172290;19;20384;-63
2022/02/17 14:42:11;;;;;;;11.32;1.90;;;10.70;70.70;;;;;;9170017;19;20015;-67
2022/02/17 14:45:17;;;;;;;8.57;1.60;;;10.60;70.80;;;;;;9171107;19;20029;-66
2022/02/17 14:48:23;;;;;;;17.45;2.88;;;10.60;70.80;;;;;;9172316;19;20011;-63
2022/02/17 14:51:30;;;;;;;9.40;2.35;;;10.50;70.80;;;;;;9170818;19;20014;-65
2022/02/17 14:54:37;;;;;;;13.10;2.05;;;10.50;71.00;;;;;;9171000;19;20834;-66
2022/02/17 14:57:42;;;;;;;9.77;2.00;;;10.40;71.00;;;;;;9171026;19;20022;-65
2022/02/17 15:00:48;;;;;;;8.50;1.83;;;10.40;71.10;;;;;;9171834;19;20010;-64
2022/02/17 15:03:53;;;;;;;14.70;2.17;;;10.30;71.10;;;;;;9169931;19;20026;-65
2022/02/17 15:06:59;;;;;;;16.55;2.50;;;10.30;71.30;;;;;;9169902;19;20056;-65
2022/02/17 15:10:07;;;;;;;11.23;1.80;;;10.20;71.30;;;;;;9171141;19;20023;-65
2022/02/17 15:13:12;;;;;;;14.27;1.90;;;10.20;71.40;;;;;;9171851;19;20022;-65
2022/02/17 15:16:18;;;;;;;7.57;1.98;;;10.10;71.40;;;;;;9171548;19;20070;-66
2022/02/17 15:20:12;;;;;;;8.50;1.92;;;10.10;71.40;;;;;;9171325;19;20893;-65
2022/02/17 15:22:50;;;;;;;7.70;1.63;;;10.10;71.40;;;;;;9167908;19;20019;-63
2022/02/17 15:25:57;;;;;;;11.52;2.00;;;10.10;71.50;;;;;;9166687;19;20014;-64
2022/02/17 15:29:02;;;;;;;9.80;1.60;;;10.00;71.50;;;;;;9169434;19;20527;-65
2022/02/17 15:32:08;;;;;;;12.40;2.33;;;10.00;71.50;;;;;;9170694;19;20018;-65
2022/02/17 15:35:14;;;;;;;17.00;2.60;;;10.00;71.60;;;;;;9168961;19;20018;-65
2022/02/17 15:38:20;;;;;;;8.05;1.60;;;10.00;71.70;;;;;;9170341;19;20117;-64
2022/02/17 15:41:28;;;;;;;12.95;2.47;;;9.90;71.70;;;;;;9170549;19;20807;-66
2022/02/17 15:44:36;;;;;;;15.07;2.17;;;9.90;71.80;;;;;;9170795;19;20023;-64
2022/02/17 15:47:41;;;;;;;15.57;2.60;;;9.80;71.70;;;;;;9170958;19;20011;-63
2022/02/17 15:50:46;;;;;;;11.18;2.20;;;9.80;71.90;;;;;;9167902;19;20014;-64
2022/02/17 15:53:52;;;;;;;16.33;1.65;;;9.80;71.90;;;;;;9175523;19;20473;-64
2022/02/17 15:56:59;;;;;;;15.38;2.47;;;9.70;71.90;;;;;;9177244;19;20014;-65
2022/02/17 16:00:07;;;;;;;15.13;2.83;;;9.70;71.90;;;;;;9184156;19;20329;-64
2022/02/17 16:03:16;;;;;;;9.30;1.55;;;9.60;71.90;;;;;;9183443;19;20467;-65
2022/02/17 16:06:21;;;;;;;22.92;2.90;;;9.60;71.90;;;;;;9180922;19;20038;-64
2022/02/17 16:09:26;;;;;;;8.40;1.70;;;9.60;71.90;;;;;;9180092;19;20341;-64
2022/02/17 16:12:35;;;;;;;11.30;2.33;;;9.50;71.90;;;;;;9180014;19;20029;-63
2022/02/17 16:15:46;;;;;;;9.30;2.78;;;9.50;71.80;;;;;;9176405;19;20037;-63